Terminal Aerodrome Forecast
Issued by NWS Wilmington, OH

Current Version | Previous Version | Text Only | Print | Product List | Glossary Off
Versions: 1 2 3 4 5 6 7 8 9 10 11 12 13

742
FTUS41 KILN 211131
TAFILN
TAF
KILN 211131Z 2112/2212 30010KT P6SM BKN060
     FM212300 34008KT P6SM OVC060
     FM220400 03008KT P6SM OVC035
     FM221000 04008KT P6SM VCSH OVC035=

USA.gov is the U.S. government's official web portal to all federal, state and local government web resources and services.